createdAt,value
2022-08-17T04:28:07.730Z,72.232002
2022-08-17T04:30:24.166Z,72.018997
2022-08-17T04:32:58.429Z,72.249001
2022-08-17T04:34:56.206Z,71.896004
2022-08-17T04:37:10.549Z,71.318001
2022-08-17T04:39:25.960Z,70.900002
2022-08-17T04:41:40.335Z,70.563004
2022-08-17T04:43:55.719Z,70.385002
2022-08-17T04:46:11.173Z,70.334999
2022-08-17T04:48:28.077Z,70.196999
2022-08-17T04:50:42.965Z,69.935997
2022-08-17T04:52:57.666Z,69.760002
2022-08-17T04:55:11.892Z,69.551003
2022-08-17T04:57:26.369Z,69.421997
2022-08-17T04:59:42.867Z,69.416
2022-08-17T05:02:05.071Z,69.304001
2022-08-17T05:04:21.216Z,69.026001
2022-08-17T05:06:36.755Z,68.93
2022-08-17T05:08:51.253Z,68.802002
2022-08-17T05:11:05.713Z,68.788002
2022-08-17T05:13:20.200Z,68.747002
2022-08-17T05:15:35.902Z,68.792999
2022-08-17T05:17:51.125Z,68.864998
2022-08-17T05:20:05.544Z,68.93
2022-08-17T05:22:19.885Z,69.097
2022-08-17T05:24:38.897Z,69.116997
2022-08-17T05:26:51.743Z,68.982002
2022-08-17T05:29:08.326Z,68.945999
2022-08-17T05:31:22.693Z,68.772003
2022-08-17T05:33:40.444Z,68.625999
2022-08-17T05:35:55.498Z,68.429001
2022-08-17T05:38:09.853Z,68.157997
2022-08-17T05:40:24.343Z,68.097
2022-08-17T05:42:41.664Z,68.002998
2022-08-17T05:44:56.111Z,67.932999
2022-08-17T05:47:10.453Z,67.947998
2022-08-17T05:49:24.971Z,67.940002
2022-08-17T05:51:39.425Z,67.778
2022-08-17T05:53:53.894Z,67.980003
2022-08-17T05:56:10.907Z,68.042999
2022-08-17T05:58:25.695Z,68.025002
2022-08-17T06:00:41.936Z,67.874001
2022-08-17T06:02:54.711Z,67.944
2022-08-17T06:05:08.977Z,68.111
2022-08-17T06:07:23.486Z,68.515999
2022-08-17T06:09:37.826Z,68.726997
2022-08-17T06:11:53.403Z,68.772003
2022-08-17T06:14:08.656Z,68.459
2022-08-17T06:16:26.093Z,68.478996
2022-08-17T06:18:40.359Z,68.293999
2022-08-17T06:20:54.816Z,68.382004
2022-08-17T06:23:09.263Z,68.584
2022-08-17T06:25:24.681Z,68.667999
2022-08-17T06:27:39.119Z,68.898003
2022-08-17T06:29:53.502Z,68.764999
2022-08-17T06:32:07.873Z,68.359001
2022-08-17T06:34:23.277Z,68.112999
2022-08-17T06:36:38.605Z,67.746002
2022-08-17T06:38:53.071Z,67.452003
2022-08-17T06:41:07.407Z,67.111
2022-08-17T06:43:21.979Z,67.098
2022-08-17T06:45:36.323Z,67.046997
2022-08-17T06:47:50.762Z,66.952003
2022-08-17T06:50:05.172Z,67.122002
2022-08-17T06:52:42.270Z,67.132004
2022-08-17T06:54:37.039Z,66.886002
2022-08-17T06:56:54.523Z,66.963997
2022-08-17T06:59:06.938Z,67.378998
2022-08-17T07:01:21.397Z,67.634003
2022-08-17T07:03:35.809Z,68.012001
2022-08-17T07:05:50.258Z,68.075996
2022-08-17T07:08:06.663Z,67.755997
2022-08-17T07:10:21.093Z,67.057999
2022-08-17T07:12:35.468Z,66.707001
2022-08-17T07:14:49.916Z,66.433998
2022-08-17T07:17:04.478Z,66.083
2022-08-17T07:19:18.844Z,65.583
2022-08-17T07:21:33.261Z,65.262001
2022-08-17T07:23:47.602Z,65.234001
2022-08-17T07:26:01.973Z,65.117996
2022-08-17T07:28:16.417Z,64.568001
2022-08-17T07:30:30.781Z,64.146004
2022-08-17T07:32:48.267Z,64.285004
2022-08-17T07:35:03.800Z,63.926998
2022-08-17T07:37:20.172Z,64.021004
2022-08-17T07:39:34.569Z,64.235001
2022-08-17T07:41:53.662Z,64.502998
2022-08-17T07:44:09.309Z,64.303001
2022-08-17T07:46:23.676Z,64.320999
2022-08-17T07:48:38.041Z,64.433998
2022-08-17T07:50:52.432Z,64.549004
2022-08-17T07:53:06.846Z,64.586998
2022-08-17T07:55:21.264Z,64.725998
2022-08-17T07:57:35.633Z,64.610001
2022-08-17T07:59:50.091Z,64.399002
2022-08-17T08:02:05.619Z,64.580002
2022-08-17T08:04:25.881Z,64.786003
2022-08-17T08:06:39.313Z,64.901001
2022-08-17T08:08:53.769Z,64.940002
2022-08-17T08:11:08.199Z,64.757004
2022-08-17T08:13:22.633Z,64.769997
2022-08-17T08:15:37.035Z,64.738998
2022-08-17T08:17:54.416Z,65.026001
2022-08-17T08:20:35.111Z,65.405998
2022-08-17T08:22:27.130Z,65.710999
2022-08-17T08:24:41.531Z,65.679001
2022-08-17T08:26:55.930Z,65.836998
2022-08-17T08:29:10.365Z,65.856003
2022-08-17T08:31:25.803Z,66.098
2022-08-17T08:33:40.187Z,66.207001
2022-08-17T08:35:54.596Z,66.542999
2022-08-17T08:38:08.961Z,66.598999
2022-08-17T08:40:23.426Z,66.776001
2022-08-17T08:42:37.803Z,67.152
2022-08-17T08:45:01.218Z,67.702003
2022-08-17T08:47:09.683Z,67.943001
2022-08-17T08:49:39.254Z,67.394997
2022-08-17T08:51:41.458Z,67.485001
2022-08-17T08:53:55.845Z,67.261002
2022-08-17T08:56:10.212Z,67.619003
2022-08-17T08:58:30.871Z,68.142998
2022-08-17T09:00:42.044Z,68.138
2022-08-17T09:02:56.544Z,68.237999
2022-08-17T09:05:14.144Z,68.311996
2022-08-17T09:07:26.296Z,68.554001
2022-08-17T09:09:40.664Z,69.003998
2022-08-17T09:12:01.617Z,69.306
2022-08-17T09:14:21.075Z,69.640999
2022-08-17T09:16:29.794Z,69.829002
2022-08-17T09:18:59.561Z,69.863998
2022-08-17T09:21:01.599Z,70.773003
2022-08-17T09:23:16.017Z,71.072998
2022-08-17T09:25:30.460Z,70.843002
2022-08-17T09:27:45.781Z,69.244003
2022-08-17T09:30:00.261Z,69.598999
2022-08-17T09:32:14.988Z,69.172997
2022-08-17T09:34:29.643Z,69.359001
2022-08-17T09:36:44.821Z,69.136002
2022-08-17T09:39:01.217Z,69.456001
2022-08-17T09:41:15.689Z,70.175003
2022-08-17T09:43:30.127Z,70.304001
2022-08-17T09:45:44.684Z,70.789001
2022-08-17T09:47:59.016Z,71.223
2022-08-17T09:50:13.375Z,72.015999
2022-08-17T09:52:27.846Z,72.689003
2022-08-17T09:54:42.167Z,72.867996
2022-08-17T09:57:18.362Z,73.300003
2022-08-17T09:59:15.054Z,73.446999
2022-08-17T10:01:29.581Z,73.424004
2022-08-17T10:03:43.936Z,73.639
2022-08-17T10:05:58.506Z,73.720001
2022-08-17T10:08:13.853Z,73.586998
2022-08-17T10:10:30.311Z,73.921997
2022-08-17T10:12:46.528Z,73.009003
2022-08-17T10:15:05.088Z,73.211998
2022-08-17T10:17:19.360Z,73.764999
2022-08-17T10:19:33.847Z,73.797997
2022-08-17T10:21:48.276Z,73.561996
2022-08-17T10:24:05.618Z,73.620003
2022-08-17T10:26:20.034Z,73.314003
2022-08-17T10:28:34.524Z,73.556999
2022-08-17T10:30:48.948Z,73.545998
2022-08-17T10:33:05.299Z,72.706001
2022-08-17T10:35:19.960Z,71.68
2022-08-17T10:37:34.405Z,72.259003
2022-08-17T10:39:50.703Z,72.759003
2022-08-17T10:42:04.080Z,72.501999
2022-08-17T10:44:36.814Z,72.274002
2022-08-17T10:46:35.917Z,72.356003
2022-08-17T10:48:50.388Z,71.661003
2022-08-17T10:51:05.064Z,72.071999
2022-08-17T10:53:19.976Z,72.555
2022-08-17T10:55:33.880Z,72.725998
2022-08-17T10:57:49.341Z,72.764999
2022-08-17T11:00:03.616Z,73.272003
2022-08-17T11:02:17.928Z,72.741997
2022-08-17T11:04:32.471Z,70.862999
2022-08-17T11:06:46.833Z,70.324997
2022-08-17T11:09:01.215Z,70.639999
2022-08-17T11:11:15.661Z,70.564003
2022-08-17T11:13:30.069Z,70.736
2022-08-17T11:15:44.470Z,70.814003
2022-08-17T11:17:59.838Z,71.198997
2022-08-17T11:20:14.292Z,71.330002
2022-08-17T11:22:32.874Z,70.938004
2022-08-17T11:24:44.880Z,70.906998
2022-08-17T11:26:58.536Z,70.653999
2022-08-17T11:29:12.900Z,70.694
2022-08-17T11:31:38.145Z,71.43
2022-08-17T11:33:45.540Z,71.709
2022-08-17T11:35:59.891Z,72.070999
2022-08-17T11:38:16.152Z,72.017998
2022-08-17T11:40:28.696Z,72.162003
2022-08-17T11:42:43.046Z,72.297997
2022-08-17T11:44:57.418Z,72.300003
2022-08-17T11:47:11.827Z,72.297997
2022-08-17T11:49:26.184Z,72.415001
2022-08-17T11:51:40.543Z,73.088997
2022-08-17T11:54:08.937Z,73.285004
2022-08-17T11:56:12.254Z,73.489998
2022-08-17T11:58:26.727Z,73.439003
2022-08-17T12:00:41.124Z,73.761002
2022-08-17T12:02:55.593Z,73.869003
2022-08-17T12:05:11.824Z,73.792
2022-08-17T12:07:24.380Z,73.073997
2022-08-17T12:09:38.802Z,73.152
2022-08-17T12:11:54.812Z,73.310997
2022-08-17T12:14:13.780Z,73.407997
2022-08-17T12:16:27.965Z,74.044998
2022-08-17T12:18:42.423Z,74.128998
2022-08-17T12:20:56.966Z,74.533997
2022-08-17T12:23:11.264Z,74.883003
2022-08-17T12:25:25.654Z,75.184998
2022-08-17T12:27:43.127Z,75.002998
2022-08-17T12:29:57.512Z,75.210999
2022-08-17T12:32:11.937Z,75.528999
2022-08-17T12:34:26.376Z,75.597
2022-08-17T12:36:40.798Z,75.267998
2022-08-17T12:38:55.270Z,75.904999
2022-08-17T12:41:10.697Z,75.814003
2022-08-17T12:43:25.200Z,76.287003
2022-08-17T12:45:40.651Z,76.111
2022-08-17T12:47:56.052Z,75.759003
2022-08-17T12:50:28.335Z,76.055
2022-08-17T12:52:27.948Z,75.829002
2022-08-17T12:54:42.451Z,75.098999
2022-08-17T12:56:56.813Z,75.248001
2022-08-17T12:59:11.226Z,75.528
2022-08-17T13:01:28.658Z,75.087997
2022-08-17T13:03:43.043Z,75.147003
2022-08-17T13:05:57.470Z,74.761002
2022-08-17T13:08:11.915Z,74.472
2022-08-17T13:10:30.166Z,74.026001
2022-08-17T13:12:42.735Z,74.667
2022-08-17T13:14:57.200Z,75.084
2022-08-17T13:17:13.551Z,75.150002
2022-08-17T13:19:29.720Z,74.788002
2022-08-17T13:21:43.454Z,74.802002
2022-08-17T13:23:57.965Z,75.238998
2022-08-17T13:26:12.379Z,75.170998
2022-08-17T13:28:29.837Z,75.155998
2022-08-17T13:30:44.077Z,74.855003
2022-08-17T13:32:58.615Z,74.704002
2022-08-17T13:35:28.465Z,74.134003
2022-08-17T13:37:32.442Z,74.042
2022-08-17T13:39:46.994Z,73.125
2022-08-17T13:42:01.323Z,72.863998
2022-08-17T13:44:15.687Z,72.483002
2022-08-17T13:46:30.041Z,72.124001
2022-08-17T13:48:44.479Z,72.385002
2022-08-17T13:50:58.820Z,72.634003
2022-08-17T13:53:13.250Z,72.365997
2022-08-17T13:55:27.938Z,71.363998
2022-08-17T13:57:42.404Z,69.686996
2022-08-17T13:59:56.829Z,68.369003
2022-08-17T14:02:11.265Z,67.333
2022-08-17T14:04:25.688Z,66.491997
2022-08-17T14:06:49.381Z,65.847
2022-08-17T14:08:57.439Z,64.413002
2022-08-17T14:11:11.804Z,62.544998
2022-08-17T14:13:26.184Z,62.855999
2022-08-17T14:15:54.046Z,63.271999
2022-08-17T14:17:57.822Z,60.917999
2022-08-17T14:20:12.264Z,59.856998
2022-08-17T14:22:27.626Z,58.334
2022-08-17T14:24:44.946Z,57.278
2022-08-17T14:26:57.351Z,57.556999
2022-08-17T14:29:12.586Z,56.528
2022-08-17T14:31:27.077Z,56.213001
2022-08-17T14:33:44.418Z,56.493999
2022-08-17T14:35:58.908Z,56.606998
2022-08-17T14:38:13.460Z,56.453999
2022-08-17T14:40:27.878Z,56.950001
2022-08-17T14:42:42.276Z,57.769001
2022-08-17T14:44:57.675Z,58.529999
2022-08-17T14:47:12.057Z,58.497002
2022-08-17T14:49:26.486Z,57.126999
2022-08-17T14:51:43.666Z,57.201
2022-08-17T14:53:56.161Z,56.417
2022-08-17T14:56:10.576Z,56.395
2022-08-17T14:58:25.018Z,56.623001
2022-08-17T15:00:39.575Z,56.384998
2022-08-17T15:02:53.988Z,54.737999
2022-08-17T15:05:08.438Z,53.255001
2022-08-17T15:07:24.299Z,53.063
2022-08-17T15:09:40.205Z,53.290001
2022-08-17T15:11:55.586Z,53.125
2022-08-17T15:14:10.002Z,52.763
2022-08-17T15:16:24.404Z,54.076
2022-08-17T15:18:39.122Z,54.507999
2022-08-17T15:20:53.527Z,55.659
2022-08-17T15:23:08.054Z,55.933998
2022-08-17T15:25:23.837Z,57.094002
2022-08-17T15:27:38.405Z,57.348999
2022-08-17T15:29:52.865Z,58.077
2022-08-17T15:32:08.311Z,58.348999
2022-08-17T15:34:22.719Z,58.013
2022-08-17T15:36:37.116Z,57.723
2022-08-17T15:38:54.449Z,58.369999
2022-08-17T15:41:08.997Z,58.595001
2022-08-17T15:43:27.542Z,56.016998
2022-08-17T15:45:38.771Z,55.400002
2022-08-17T15:47:54.077Z,55.145
2022-08-17T15:50:08.395Z,56.151001
2022-08-17T15:52:22.939Z,55.451
2022-08-17T15:54:37.400Z,54.292999
2022-08-17T15:56:53.869Z,53.165001
2022-08-17T15:59:08.367Z,52.202999
2022-08-17T16:02:16.328Z,51.658001
2022-08-17T16:03:46.632Z,50.919998
2022-08-17T16:05:57.480Z,50.691002
2022-08-17T16:08:12.591Z,50.306
2022-08-17T16:10:33.930Z,50.258999
2022-08-17T16:12:45.521Z,51.080002
2022-08-17T16:14:59.917Z,52.465
2022-08-17T16:17:39.321Z,53.188999
2022-08-17T16:19:31.753Z,54.571999
2022-08-17T16:21:46.115Z,53.789001
2022-08-17T16:24:00.477Z,51.973
2022-08-17T16:26:14.851Z,51.263
2022-08-17T16:28:30.960Z,51.424999
2022-08-17T16:30:46.840Z,51.243
2022-08-17T16:33:01.257Z,51.041
2022-08-17T16:35:15.648Z,50.250999
2022-08-17T16:37:30.012Z,51.346001
2022-08-17T16:39:45.493Z,52.418999
2022-08-17T16:41:59.947Z,53.18
2022-08-17T16:44:15.240Z,54.404999
2022-08-17T16:46:28.788Z,53.872002
2022-08-17T16:48:43.139Z,54.027
2022-08-17T16:50:58.566Z,53.493
2022-08-17T16:53:14.087Z,53.325001
2022-08-17T16:55:28.991Z,52.695999
2022-08-17T16:57:46.147Z,52.860001
2022-08-17T16:59:59.822Z,54.028
2022-08-17T17:02:14.190Z,54.419998
2022-08-17T17:04:28.693Z,53.793999
2022-08-17T17:06:45.031Z,54.18
2022-08-17T17:08:59.407Z,52.924
2022-08-17T17:11:13.794Z,53.848
2022-08-17T17:13:28.093Z,54.480999
2022-08-17T17:15:43.507Z,55.096001
2022-08-17T17:17:57.801Z,53.931
2022-08-17T17:20:15.183Z,55.063
2022-08-17T17:22:29.541Z,55.379002
2022-08-17T17:24:47.075Z,55.938999
2022-08-17T17:27:00.330Z,55.639999
2022-08-17T17:29:18.018Z,55.91
2022-08-17T17:31:32.339Z,55.77
2022-08-17T17:33:46.705Z,56.053001
2022-08-17T17:36:01.089Z,56.390999
2022-08-17T17:38:15.471Z,56.75
2022-08-17T17:40:29.955Z,56.594002
2022-08-17T17:42:44.450Z,57.75
2022-08-17T17:44:58.978Z,58.681999
2022-08-17T17:47:13.312Z,58.345001
2022-08-17T17:49:28.754Z,59.264
2022-08-17T17:51:55.077Z,59.925999
2022-08-17T17:54:00.719Z,60.568001
2022-08-17T17:56:18.843Z,61.056999
2022-08-17T17:58:32.405Z,61.584999
2022-08-17T18:00:46.764Z,61.863998
2022-08-17T18:03:01.120Z,62.261002
2022-08-17T18:05:15.489Z,62.613998
2022-08-17T18:07:29.868Z,63.041
2022-08-17T18:09:46.096Z,63.401001
2022-08-17T18:12:02.629Z,63.519001
2022-08-17T18:14:17.008Z,63.349998
2022-08-17T18:16:31.967Z,63.966999
2022-08-17T18:18:45.763Z,64.140999
2022-08-17T18:21:00.150Z,64.617996
2022-08-17T18:23:14.578Z,64.820999
2022-08-17T18:25:28.967Z,64.838997
2022-08-17T18:27:43.368Z,63.966
2022-08-17T18:29:57.756Z,63.368
2022-08-17T18:32:14.118Z,63.505001
2022-08-17T18:34:46.366Z,63.058998
2022-08-17T18:36:45.972Z,63.227001
2022-08-17T18:39:00.483Z,63.57
2022-08-17T18:41:16.088Z,63.945
2022-08-17T18:43:36.618Z,63.995998
2022-08-17T18:45:52.755Z,64.418999
2022-08-17T18:48:07.358Z,64.789001
2022-08-17T18:50:23.153Z,65.084999
2022-08-17T18:52:37.029Z,65.539001
2022-08-17T18:54:51.546Z,65.736
2022-08-17T18:57:06.077Z,66.158997
2022-08-17T18:59:21.685Z,66.418999
2022-08-17T19:01:41.640Z,66.583
2022-08-17T19:03:53.488Z,66.738998
2022-08-17T19:06:08.152Z,66.955002
2022-08-17T19:08:23.016Z,66.942001
2022-08-17T19:10:45.823Z,66.944
2022-08-17T19:12:54.762Z,67.087997
2022-08-17T19:15:11.134Z,67.190002
2022-08-17T19:17:25.580Z,67.453003
2022-08-17T19:19:40.035Z,67.75
2022-08-17T19:21:54.470Z,67.875999
2022-08-17T19:24:08.932Z,68.240997
2022-08-17T19:26:51.419Z,68.486
2022-08-17T19:28:40.621Z,68.603996
2022-08-17T19:30:58.027Z,68.700996
2022-08-17T19:33:12.449Z,68.750999
2022-08-17T19:35:27.966Z,68.926003
2022-08-17T19:37:42.343Z,69.305
2022-08-17T19:39:56.868Z,69.482002
2022-08-17T19:42:12.135Z,69.526001
2022-08-17T19:44:26.496Z,69.529999
2022-08-17T19:46:42.984Z,69.558998
2022-08-17T19:48:58.314Z,69.538002
2022-08-17T19:51:12.715Z,69.629997
2022-08-17T19:53:36.818Z,69.823997
2022-08-17T19:55:44.491Z,70.033997
2022-08-17T19:58:00.077Z,70.157997
2022-08-17T20:00:14.526Z,70.156998
2022-08-17T20:02:28.930Z,70.151001
2022-08-17T20:04:43.327Z,70.287003
2022-08-17T20:06:57.687Z,70.383003
2022-08-17T20:09:15.124Z,70.456001
2022-08-17T20:11:27.565Z,70.542
2022-08-17T20:13:41.892Z,70.522003
2022-08-17T20:15:56.293Z,70.617996
2022-08-17T20:18:10.731Z,70.584999
2022-08-17T20:20:25.194Z,70.666
2022-08-17T20:22:46.117Z,70.669998
2022-08-17T20:24:58.014Z,70.768997
2022-08-17T20:27:12.400Z,70.887001
2022-08-17T20:29:36.939Z,70.920998
2022-08-17T20:31:45.273Z,70.916
2022-08-17T20:33:59.693Z,70.856003
2022-08-17T20:36:15.107Z,70.850998
2022-08-17T20:38:29.534Z,70.857002
2022-08-17T20:40:43.956Z,70.771004
2022-08-17T20:42:59.363Z,70.778
2022-08-17T20:45:13.793Z,70.57
2022-08-17T20:47:28.130Z,70.402
2022-08-17T20:49:42.495Z,70.155998
2022-08-17T20:52:00.495Z,70.125
2022-08-17T20:54:13.326Z,70.139
2022-08-17T20:56:28.455Z,70.505997
2022-08-17T20:58:43.537Z,70.850998
2022-08-17T21:00:59.152Z,71.206001
2022-08-17T21:03:14.230Z,71.441002
2022-08-17T21:05:30.554Z,71.597
2022-08-17T21:07:46.796Z,71.613998
2022-08-17T21:10:02.227Z,71.516998
2022-08-17T21:12:19.429Z,71.363998
2022-08-17T21:14:34.925Z,71.142998
2022-08-17T21:16:49.783Z,71.219002
2022-08-17T21:19:05.727Z,71.051003
2022-08-17T21:21:19.514Z,70.763
2022-08-17T21:23:33.925Z,70.586998
2022-08-17T21:25:48.543Z,70.660004
2022-08-17T21:28:02.929Z,71.051003
